Neilston, United Kingdom
Current Conditions -  °F | °C
As of 10:20 PM on Saturday 25 Oct 2014 (Local Time) from EGPF Reporting Station
Few Clouds Few Clouds  
Wind Chill: 54°   Ceiling: Unl
Heat Index: 54°   Visibility: 6mi
Dew Point: 46°   Wind: 20mph
Humidity: 77%   Direction: 220°SW
Pressure: 29.71"   Gusts: 31mph
Location:  55.79°N, 4.43°W
Report Text: EGPF 252120Z AUTO 22017G27KT 9999 FEW033 12/08 Q1006
Loading
Personal Weather Stations






























Interactive Weather Map
Tropical Storm Tracking
New forecast layout! Learn more

10-Day Weather Forecast

Advertisements
Track Severe Weather on mobile